CYYC

Calgary International Airport

Calgary, Alberta, Canada
METAR CYYC 172100Z 27019G28KT 40SM FEW035 SCT170 BKN210 06/M10 A2958 RMK SC1AC2CI4 ACSL S-W-NW SLP058 DENSITY ALT 3900FT
Observed Flight Rules
Dec-17 @ 21:00 UTC (29 minutes ago) Visual Flight Rules
Wind Visibility Clouds
270° at 19 knots
 Gusting to 28 knots
40 miles
  • Few at 3,500' AGL
  • Scattered at 17,000' AGL
  • Broken at 21,000' AGL
Temperatures Readings
Current 6°C / 43°F
Dewpoint -10°C / 14°F
Humidity 31%
Altimeter 29.58" Hg
Pressure 1005.8 hPa
Elevation 1084
METAR CYYC 172100Z 27019G28KT 40SM FEW035 SCT170 BKN210 06/M10 A2958 RMK SC1AC2CI4 ACSL S-W-NW SLP058 DENSITY ALT 3900FT
Observed Flight Rules
Dec-17 @ 21:00 UTC
(29 minutes ago)
VFR
Wind Visibility
270° at 19 knots
 Gusting to 28 knots
40 miles
Clouds
  • Few at 3,500' AGL
  • Scattered at 17,000' AGL
  • Broken at 21,000' AGL
Temperature Dewpoint
6°C / 43°F -10°C / 14°F
Humidity Altimeter Pressure
31% 29.58" Hg 1005.8 hPa